Caputa, SD (57725)

8:45 PM MDT on April 27, 2015 (GMT -0600)
Rapid City | | Change Station
CLOSE
Current Station
Airport
Location: Rapid City,
Elevation: 3166 ft
Nearby Weather Stations

Elev 3166 ft 44.05 °N, 103.06 °W | Updated 53 minutes ago

Overcast
Overcast
45 °F
Feels Like 40 °F
N
9
Wind Variable Wind from North

Today
High -- | Low -- °F
--% Chance of Precip.
Yesterday
High -- | Low -- °F
Precip. -- in
5:49 AM 7:50 PM
Waxing Gibbous, 70% visible
Pressure 30.36 in
Visibility 10.0 miles
Clouds Overcast 4000 ft
Windchill 40 °F
Dew Point 39 °F
Humidity 80%
Rainfall 0.02 in
Snow Depth Not available.
UV 0 out of 12
Pollen 9.10 out of 12
Air Quality Not available.
Flu Activity Sporadic
METAR KRAP 280152Z 36008KT 10SM -RA OVC040 07/04 A3032 RMK AO2 SLP281 P0000 T00720039

More Conditions Fewer Conditions

Pressure 30.36 in
Visibility 10.0 miles
Clouds Overcast 4000 ft
Windchill 40 °F
Dew Point 39 °F
Humidity 80%
Rainfall 0.02 in
Snow Depth Not available.
UV 0 out of 12
Pollen 9.10 out of 12
Air Quality Not available.
Flu Activity Sporadic
METAR KRAP 280152Z 36008KT 10SM -RA OVC040 07/04 A3032 RMK AO2 SLP281 P0000 T00720039

More Conditions Fewer Conditions

10-Day Weather Forecast

Almanac

Astronomy

Apr. 27, 2015 Rise Set
Actual Time
Civil Twilight
Nautical Twilight
Astronomical Twilight
Moon
Length of Visible Light
Length of Day
Tomorrow will be .
, % of the Moon is Illuminated

Today's Extremes

State Highs State Lows

Community

WunderPhotos

Upload Photos

1,817,527 photos uploaded!

WunderBlogs® & News

Nearby

Air Quality

  Air Quality AQ Index Pollutant
Not available.

Snow Depth

Station Depth Elevation

Earthquake Activity

City Distance Mag. Time & Date
Minimum magnitude displayed is 2.5.

Coastal Water Temperatures

Place Temperature

Stations

Nearby Weather Stations

Station Location Temp. Windchill Dew Point Humidity Wind Precip. Elev Updated Type